Time;durP1;ratioP1;P1;durP2;ratioP2;P2;SDS_P1;SDS_P2;PMS_P1;PMS_P2;Temp;Humidity;BMP_temperature;BMP_pressure;BME280_temperature;BME280_humidity;BME280_pressure;Samples;Min_cycle;Max_cycle;Signal;HPM_P1;HPM_P2
2021/10/17 00:02:02;;;;;;;;;;;;;;;;;;;;;
2021/10/17 00:04:39;;;;;;;;;19.67;18.00;;;;;14.17;nan;101189.72;4803461;29;75143;-82
2021/10/17 00:07:16;;;;;;;;;18.67;17.67;;;;;14.06;nan;101196.81;4816410;29;45493;-82
2021/10/17 00:09:42;;;;;;;;;23.67;20.00;;;;;14.26;nan;101225.44;4800982;29;45430;-82
2021/10/17 00:12:10;;;;;;;;;19.00;19.00;;;;;14.13;nan;101190.59;4814634;29;45540;-82
2021/10/17 00:15:09;;;;;;;;;;;;;;;;;;;;;
2021/10/17 00:18:09;;;;;;;;;;;;;;;;;;;;;
2021/10/17 00:20:42;;;;;;;;;15.00;13.00;;;;;14.27;nan;101219.22;4813246;29;68067;-82
2021/10/17 00:23:10;;;;;;;;;14.33;13.00;;;;;14.14;nan;101204.91;4813452;29;45604;-82
2021/10/17 00:25:36;;;;;;;;;15.33;13.67;;;;;13.97;nan;101226.16;4814563;29;45454;-81
2021/10/17 00:28:14;;;;;;;;;18.00;16.33;;;;;13.86;nan;101174.38;4816634;29;45890;-82
2021/10/17 00:31:06;;;;;;;;;;;;;;;;;;;;;
2021/10/17 00:33:42;;;;;;;;;;;;;;;;;;;;;
2021/10/17 00:36:31;;;;;;;;;;;;;;;;;;;;;
2021/10/17 00:42:20;;;;;;;;;14.33;12.00;;;;;13.62;nan;101181.31;4834623;29;45517;-82
2021/10/17 00:45:01;;;;;;;;;13.67;11.67;;;;;14.08;nan;101231.56;4832351;29;45518;-82
2021/10/17 00:47:30;;;;;;;;;10.00;10.00;;;;;13.99;nan;101225.25;4833025;29;46413;-81
2021/10/17 00:50:08;;;;;;;;;14.00;11.00;;;;;13.99;nan;101229.72;4832630;29;45420;-82
2021/10/17 00:52:38;;;;;;;;;12.00;12.00;;;;;13.80;nan;101208.19;4833855;29;45656;-81
2021/10/17 00:55:05;;;;;;;;;12.00;12.00;;;;;13.96;nan;101219.91;4833075;29;45619;-82
2021/10/17 00:57:43;;;;;;;;;;;;;;;;;;;;;
2021/10/17 01:00:20;;;;;;;;;13.67;13.67;;;;;13.70;nan;101163.56;4835443;29;72744;-83
2021/10/17 01:02:47;;;;;;;;;16.33;14.33;;;;;13.70;nan;101182.28;4833847;29;45387;-82
2021/10/17 01:05:14;;;;;;;;;17.33;15.67;;;;;13.54;nan;101175.91;4834956;29;45755;-82
2021/10/17 01:07:41;;;;;;;;;18.33;16.67;;;;;13.47;nan;101165.13;4834746;29;46828;-82
2021/10/17 01:10:15;;;;;;;;;15.67;15.33;;;;;13.77;nan;101229.53;4835366;29;45271;-82
2021/10/17 01:12:49;;;;;;;;;13.33;13.33;;;;;13.63;nan;101166.16;4833856;29;44955;-82
2021/10/17 01:15:21;;;;;;;;;18.00;18.00;;;;;13.72;nan;101180.50;4835475;29;45365;-81
2021/10/17 01:18:06;;;;;;;;;15.33;15.33;;;;;13.84;nan;101209.13;4835073;29;45916;-82
2021/10/17 01:20:41;;;;;;;;;16.00;15.33;;;;;13.81;nan;101195.72;4836834;29;45362;-82
2021/10/17 01:23:09;;;;;;;;;16.00;16.00;;;;;13.74;nan;101197.44;4836174;29;45490;-81
2021/10/17 01:25:35;;;;;;;;;16.00;16.00;;;;;13.46;nan;101176.72;4834673;29;45336;-82
2021/10/17 01:28:07;;;;;;;;;17.00;17.00;;;;;13.79;nan;101205.50;4834381;29;45384;-80
2021/10/17 01:30:33;;;;;;;;;16.67;15.00;;;;;13.67;nan;101216.97;4819024;29;45457;-81
2021/10/17 01:33:23;;;;;;;;;16.67;16.67;;;;;13.62;nan;101175.97;4836273;29;45433;-82
2021/10/17 01:36:01;;;;;;;;;14.33;13.67;;;;;13.61;nan;101179.50;4834477;29;45420;-82
2021/10/17 01:38:27;;;;;;;;;18.00;16.67;;;;;13.67;nan;101211.63;4833339;29;46746;-81
2021/10/17 01:40:58;;;;;;;;;19.67;16.67;;;;;13.49;nan;101164.28;4835174;29;45506;-82
2021/10/17 01:43:58;;;;;;;;;17.00;17.00;;;;;13.83;nan;101227.81;4830617;29;45528;-82
2021/10/17 01:46:26;;;;;;;;;16.00;15.00;;;;;13.65;nan;101197.34;4815801;29;45598;-82
2021/10/17 01:48:52;;;;;;;;;16.67;15.33;;;;;13.38;nan;101165.94;4833315;29;47053;-82
2021/10/17 01:51:20;;;;;;;;;19.67;16.67;;;;;13.36;nan;101162.38;4851192;29;45456;-81
2021/10/17 01:53:51;;;;;;;;;16.67;16.33;;;;;13.70;nan;101187.63;4834907;29;45563;-81
2021/10/17 01:56:24;;;;;;;;;16.00;14.67;;;;;13.48;nan;101182.97;4833739;29;45385;-81
2021/10/17 01:59:03;;;;;;;;;;;;;;;;;;;;;
2021/10/17 02:01:44;;;;;;;;;;;;;;;;;;;;;
2021/10/17 02:04:18;;;;;;;;;18.67;18.67;;;;;13.40;nan;101175.75;4832539;29;69636;-81
2021/10/17 02:06:47;;;;;;;;;16.00;15.00;;;;;13.37;nan;101169.50;4817627;29;45433;-81
2021/10/17 02:09:36;;;;;;;;;22.00;15.00;;;;;13.40;nan;101149.03;4817429;29;47056;-82
2021/10/17 02:12:20;;;;;;;;;;;;;;;;;;;;;
2021/10/17 02:14:59;;;;;;;;;15.67;15.67;;;;;13.57;nan;101185.72;4831250;29;67969;-83
2021/10/17 02:17:35;;;;;;;;;;;;;;;;;;;;;
2021/10/17 02:20:16;;;;;;;;;19.00;17.33;;;;;13.44;nan;101146.41;4831161;29;73987;-83
2021/10/17 02:22:41;;;;;;;;;21.00;19.00;;;;;13.50;nan;101213.28;4829712;29;45538;-80
2021/10/17 02:26:05;;;;;;;;;;;;;;;;;;;;;
2021/10/17 02:29:10;;;;;;;;;;;;;;;;;;;;;
2021/10/17 02:31:49;;;;;;;;;;;;;;;;;;;;;
2021/10/17 02:34:38;;;;;;;;;;;;;;;;;;;;;
2021/10/17 02:37:44;;;;;;;;;17.67;15.67;;;;;13.83;nan;101206.44;4831985;29;69182;-82
2021/10/17 02:41:25;;;;;;;;;;;;;;;;;;;;;
2021/10/17 02:44:06;;;;;;;;;;;;;;;;;;;;;
2021/10/17 02:46:32;;;;;;;;;20.00;16.00;;;;;13.56;nan;101202.63;4830143;29;71917;-82
2021/10/17 02:48:58;;;;;;;;;17.33;17.00;;;;;13.54;nan;101191.94;4815087;29;45550;-81
2021/10/17 02:54:47;;;;;;;;;22.00;21.33;;;;;13.37;nan;101151.72;4831883;29;45768;-81
2021/10/17 02:57:16;;;;;;;;;21.00;17.67;;;;;13.31;nan;101135.63;4816400;29;45543;-81
2021/10/17 02:59:47;;;;;;;;;24.67;23.33;;;;;13.52;nan;101166.09;4832014;29;45257;-81
2021/10/17 03:02:40;;;;;;;;;;;;;;;;;;;;;
2021/10/17 03:05:09;;;;;;;;;21.33;21.33;;;;;13.23;nan;101156.00;4832750;29;75110;-81
2021/10/17 03:07:41;;;;;;;;;21.33;18.00;;;;;13.35;nan;101169.50;4815914;29;45437;-81
2021/10/17 03:10:26;;;;;;;;;21.00;19.33;;;;;13.19;nan;101154.16;4829433;29;45529;-81
2021/10/17 03:13:09;;;;;;;;;19.00;18.00;;;;;13.65;nan;101197.34;4814906;29;45501;-81
2021/10/17 03:16:03;;;;;;;;;;;;;;;;;;;;;
2021/10/17 03:18:49;;;;;;;;;;;;;;;;;;;;;
2021/10/17 03:21:43;;;;;;;;;22.33;22.33;;;;;13.49;nan;101179.41;4833220;29;69084;-81
2021/10/17 03:24:33;;;;;;;;;;;;;;;;;;;;;
2021/10/17 03:27:12;;;;;;;;;21.33;21.00;;;;;13.30;nan;101183.69;4830797;29;76426;-81
2021/10/17 03:29:40;;;;;;;;;32.33;30.33;;;;;13.18;nan;101171.94;4833913;29;45380;-81
2021/10/17 03:32:31;;;;;;;;;24.33;23.67;;;;;13.22;nan;101172.88;4817664;29;45440;-81
2021/10/17 03:34:57;;;;;;;;;24.00;22.33;;;;;12.78;nan;101136.81;4817154;29;44892;-81
2021/10/17 03:37:22;;;;;;;;;25.00;24.67;;;;;12.97;nan;101166.41;4831019;29;45371;-81
2021/10/17 03:40:06;;;;;;;;;;;;;;;;;;;;;
2021/10/17 03:42:45;;;;;;;;;26.33;22.00;;;;;12.99;nan;101175.31;4832469;29;67766;-82
2021/10/17 03:46:22;;;;;;;;;;;;;;;;;;;;;
2021/10/17 03:49:24;;;;;;;;;26.00;26.00;;;;;12.85;nan;101116.44;4814773;29;74372;-81
2021/10/17 03:52:38;;;;;;;;;21.00;16.67;;;;;13.02;nan;101148.63;4771165;29;45452;-81
2021/10/17 03:55:07;;;;;;;;;24.00;22.00;;;;;12.85;nan;101134.22;4776327;29;45601;-81
2021/10/17 03:57:45;;;;;;;;;;;;;;;;;;;;;
2021/10/17 04:00:14;;;;;;;;;23.67;21.33;;;;;12.84;nan;101157.34;4774716;29;74450;-82
2021/10/17 04:02:40;;;;;;;;;20.00;20.00;;;;;12.96;nan;101168.16;4775468;29;45520;-82
2021/10/17 04:05:11;;;;;;;;;23.00;22.00;;;;;12.65;nan;101123.34;4760295;29;45528;-82
2021/10/17 04:07:37;;;;;;;;;26.67;20.33;;;;;12.78;nan;101151.94;4778107;29;45421;-82
2021/10/17 04:10:09;;;;;;;;;20.67;18.00;;;;;12.77;nan;101139.47;4774295;29;45494;-82
2021/10/17 04:12:37;;;;;;;;;21.67;21.67;;;;;12.45;nan;101117.75;4776605;29;45415;-82
2021/10/17 04:15:40;;;;;;;;;22.00;21.33;;;;;12.74;nan;101126.09;4762159;29;45397;-82
2021/10/17 04:19:03;;;;;;;;;21.33;21.33;;;;;12.68;nan;101118.00;4758648;29;45639;-82
2021/10/17 04:21:29;;;;;;;;;21.00;21.00;;;;;12.59;nan;101149.03;4707174;30;47088;-82
2021/10/17 04:24:04;;;;;;;;;;;;;;;;;;;;;
2021/10/17 04:26:30;;;;;;;;;22.00;20.67;;;;;12.50;nan;101145.38;4671265;30;68948;-81
2021/10/17 04:28:56;;;;;;;;;21.00;16.67;;;;;12.54;nan;101141.84;4691947;30;45582;-82
2021/10/17 04:31:43;;;;;;;;;21.67;20.33;;;;;12.61;nan;101128.63;4692721;30;47311;-82
2021/10/17 04:34:08;;;;;;;;;23.33;21.33;;;;;12.45;nan;101129.31;4693674;30;45516;-82
2021/10/17 04:36:35;;;;;;;;;21.67;19.33;;;;;12.63;nan;101133.97;4707959;30;45603;-82
2021/10/17 04:39:14;;;;;;;;;20.00;16.33;;;;;12.88;nan;101151.16;4708554;30;45695;-82
2021/10/17 04:42:09;;;;;;;;;21.00;19.67;;;;;12.75;nan;101143.91;4693938;30;46795;-82
2021/10/17 04:44:51;;;;;;;;;;;;;;;;;;;;;
2021/10/17 04:47:33;;;;;;;;;19.33;19.33;;;;;12.36;nan;101123.84;4721986;30;67493;-82
2021/10/17 04:50:19;;;;;;;;;22.00;22.00;;;;;12.85;nan;101174.28;4724396;30;45614;-82
2021/10/17 04:53:00;;;;;;;;;21.33;19.67;;;;;12.35;nan;101140.75;4723069;30;47144;-82
2021/10/17 04:55:40;;;;;;;;;20.00;17.67;;;;;12.58;nan;101144.59;4734690;30;45527;-82
2021/10/17 04:58:28;;;;;;;;;;;;;;;;;;;;;
2021/10/17 05:01:06;;;;;;;;;;;;;;;;;;;;;
2021/10/17 05:03:48;;;;;;;;;27.00;22.00;;;;;12.56;nan;101154.34;4816430;29;74328;-82
2021/10/17 05:06:50;;;;;;;;;20.33;17.67;;;;;12.23;nan;101130.78;4835967;29;45542;-82
2021/10/17 05:09:23;;;;;;;;;21.33;19.33;;;;;12.50;nan;101135.59;4814574;29;45499;-82
2021/10/17 05:12:10;;;;;;;;;22.00;18.33;;;;;12.59;nan;101148.16;4813681;29;45854;-82
2021/10/17 05:14:48;;;;;;;;;;;;;;;;;;;;;
2021/10/17 05:17:16;;;;;;;;;20.33;19.33;;;;;12.64;nan;101172.22;4813814;29;71774;-82
2021/10/17 05:20:13;;;;;;;;;;;;;;;;;;;;;
2021/10/17 05:23:17;;;;;;;;;;;;;;;;;;;;;
2021/10/17 05:26:05;;;;;;;;;;;;;;;;;;;;;
2021/10/17 05:28:57;;;;;;;;;;;;;;;;;;;;;
2021/10/17 05:32:00;;;;;;;;;;;;;;;;;;;;;
2021/10/17 05:34:29;;;;;;;;;27.33;26.67;;;;;12.23;nan;101137.91;4814202;29;65010;-81
2021/10/17 05:36:57;;;;;;;;;21.33;21.33;;;;;12.47;nan;101162.22;4816159;29;47002;-82
2021/10/17 05:39:28;;;;;;;;;25.00;24.00;;;;;12.43;nan;101163.06;4817581;29;45405;-82
2021/10/17 05:42:16;;;;;;;;;27.00;23.00;;;;;12.55;nan;101171.22;4801556;29;45780;-81
2021/10/17 05:44:47;;;;;;;;;23.00;21.33;;;;;12.40;nan;101185.28;4835630;29;45486;-81
2021/10/17 05:47:22;;;;;;;;;;;;;;;;;;;;;
2021/10/17 05:50:13;;;;;;;;;28.33;23.00;;;;;12.56;nan;101183.72;4854067;29;71860;-80
2021/10/17 05:52:45;;;;;;;;;25.67;21.67;;;;;12.56;nan;101178.38;4853257;29;45455;-81
2021/10/17 05:55:11;;;;;;;;;20.33;16.67;;;;;12.28;nan;101154.84;4837817;29;45945;-81
2021/10/17 05:58:18;;;;;;;;;14.33;12.67;;;;;12.24;nan;101167.28;4852982;29;46767;-80
2021/10/17 06:00:38;;;;;;;;;25.67;25.67;;;;;12.48;nan;101174.72;4852489;29;45525;-81
2021/10/17 06:03:04;;;;;;;;;16.33;16.33;;;;;12.35;nan;101197.63;4838202;29;45404;-81
2021/10/17 06:05:39;;;;;;;;;23.67;22.67;;;;;12.52;nan;101191.63;4854133;29;45553;-81
2021/10/17 06:08:05;;;;;;;;;24.33;21.67;;;;;12.12;nan;101165.31;4838496;29;46672;-81
2021/10/17 06:10:34;;;;;;;;;30.67;23.33;;;;;12.23;nan;101177.91;4835910;29;45517;-81
2021/10/17 06:12:59;;;;;;;;;26.67;24.00;;;;;12.18;nan;101169.84;4835044;29;45415;-82
2021/10/17 06:15:30;;;;;;;;;25.67;24.33;;;;;11.98;nan;101132.22;4834027;29;45377;-81
2021/10/17 06:18:16;;;;;;;;;;;;;;;;;;;;;
2021/10/17 06:21:02;;;;;;;;;;;;;;;;;;;;;
2021/10/17 06:26:54;;;;;;;;;21.33;19.00;;;;;12.41;nan;101200.38;4853729;29;45318;-81
2021/10/17 06:29:22;;;;;;;;;19.67;16.33;;;;;11.96;nan;101163.31;4852465;29;47249;-80
2021/10/17 06:31:48;;;;;;;;;22.67;20.00;;;;;11.94;nan;101157.06;4853097;29;45726;-81
2021/10/17 06:34:37;;;;;;;;;21.00;19.67;;;;;12.41;nan;101202.16;4851722;29;45424;-81
2021/10/17 06:40:35;;;;;;;;;22.33;21.33;;;;;12.38;nan;101215.44;4852669;29;45549;-81
2021/10/17 06:46:14;;;;;;;;;25.33;22.33;;;;;12.43;nan;101228.88;4844424;29;45443;-82
2021/10/17 06:48:40;;;;;;;;;18.33;16.67;;;;;12.20;nan;101226.75;4851967;29;45149;-81
2021/10/17 06:51:34;;;;;;;;;;;;;;;;;;;;;
2021/10/17 06:54:03;;;;;;;;;21.33;21.00;;;;;12.31;nan;101241.13;4849876;29;72143;-81
2021/10/17 06:56:29;;;;;;;;;19.67;19.67;;;;;12.06;nan;101182.97;4852346;29;44800;-81
2021/10/17 06:58:59;;;;;;;;;22.33;20.33;;;;;12.25;nan;101213.50;4851196;29;45490;-81
2021/10/17 07:01:25;;;;;;;;;23.67;21.67;;;;;12.36;nan;101235.88;4849922;29;46556;-81
2021/10/17 07:03:51;;;;;;;;;21.00;20.67;;;;;12.37;nan;101241.22;4849618;29;45538;-81
2021/10/17 07:06:19;;;;;;;;;21.00;18.00;;;;;12.37;nan;101209.22;4849737;29;45890;-81
2021/10/17 07:09:13;;;;;;;;;21.67;21.67;;;;;12.62;nan;101241.56;4849076;29;44741;-81
2021/10/17 07:11:47;;;;;;;;;22.00;21.33;;;;;12.55;nan;101235.25;4832989;29;46982;-81
2021/10/17 07:14:21;;;;;;;;;23.33;23.00;;;;;12.16;nan;101180.50;4848947;29;45781;-81
2021/10/17 07:16:47;;;;;;;;;21.33;19.33;;;;;12.26;nan;101191.28;4832914;29;45540;-82
2021/10/17 07:19:13;;;;;;;;;19.00;19.00;;;;;12.52;nan;101229.91;4831495;29;45369;-83
2021/10/17 07:21:39;;;;;;;;;23.00;21.67;;;;;12.32;nan;101194.03;4847937;29;45393;-82
2021/10/17 07:24:18;;;;;;;;;21.67;20.00;;;;;12.49;nan;101187.16;4833068;29;45505;-81
2021/10/17 07:26:46;;;;;;;;;27.33;20.67;;;;;12.53;nan;101205.00;4847850;29;45445;-81
2021/10/17 07:29:41;;;;;;;;;30.33;25.67;;;;;12.67;nan;101191.84;4833213;29;45584;-81
2021/10/17 07:32:52;;;;;;;;;;;;;;;;;;;;;
2021/10/17 07:35:19;;;;;;;;;26.00;24.33;;;;;12.62;nan;101198.88;4847713;29;73365;-81
2021/10/17 07:37:48;;;;;;;;;14.33;14.33;;;;;12.91;nan;101220.63;4850048;29;45813;-82
2021/10/17 07:40:26;;;;;;;;;;;;;;;;;;;;;
2021/10/17 07:46:31;;;;;;;;;;;;;;;;;;;;;
2021/10/17 07:52:46;;;;;;;;;;;;;;;;;;;;;
2021/10/17 07:56:05;;;;;;;;;;;;;;;;;;;;;
2021/10/17 07:58:54;;;;;;;;;;;;;;;;;;;;;
2021/10/17 08:01:35;;;;;;;;;25.00;22.00;;;;;13.20;nan;101188.00;4851763;29;67967;-82
2021/10/17 08:07:26;;;;;;;;;28.00;26.00;;;;;13.59;nan;101245.41;4852619;29;45834;-81
2021/10/17 08:09:54;;;;;;;;;21.33;21.00;;;;;13.60;nan;101236.53;4836494;29;45928;-81
2021/10/17 08:12:44;;;;;;;;;;;;;;;;;;;;;
2021/10/17 08:15:17;;;;;;;;;20.33;20.33;;;;;13.54;nan;101193.72;4851200;29;64867;-81
2021/10/17 08:17:55;;;;;;;;;21.33;21.00;;;;;13.91;nan;101245.69;4849870;29;46775;-81
2021/10/17 08:20:23;;;;;;;;;21.33;20.00;;;;;13.94;nan;101247.53;4851097;29;45558;-81
2021/10/17 08:23:17;;;;;;;;;26.67;25.67;;;;;13.96;nan;101238.63;4851977;29;44780;-81
2021/10/17 08:28:56;;;;;;;;;;;;;;;;;;;;;
2021/10/17 08:32:16;;;;;;;;;;;;;;;;;;;;;
2021/10/17 08:35:08;;;;;;;;;24.33;22.67;;;;;14.04;nan;101174.50;4813073;29;45420;-81
2021/10/17 08:37:34;;;;;;;;;23.33;17.00;;;;;14.19;nan;101197.78;4812486;29;45520;-81
2021/10/17 08:40:19;;;;;;;;;21.33;18.67;;;;;14.37;nan;101188.97;4811769;29;45360;-82
2021/10/17 08:42:56;;;;;;;;;23.33;22.33;;;;;14.41;nan;101183.63;4816169;29;45468;-82
2021/10/17 08:45:59;;;;;;;;;;;;;;;;;;;;;
2021/10/17 08:48:36;;;;;;;;;23.00;22.00;;;;;14.49;nan;101178.31;4815136;29;64977;-82
2021/10/17 08:51:07;;;;;;;;;22.00;19.00;;;;;14.39;nan;101184.53;4815573;29;45604;-82
2021/10/17 08:54:18;;;;;;;;;23.00;21.00;;;;;14.98;nan;101226.75;4814802;29;46037;-82
2021/10/17 08:57:00;;;;;;;;;23.00;21.33;;;;;14.94;nan;101224.06;4826896;29;45523;-82
2021/10/17 08:59:25;;;;;;;;;20.33;19.00;;;;;14.60;nan;101192.72;4813555;29;45555;-82
2021/10/17 09:01:51;;;;;;;;;22.00;19.00;;;;;14.72;nan;101188.28;4811661;29;46963;-82
2021/10/17 09:05:18;;;;;;;;;;;;;;;;;;;;;
2021/10/17 09:08:26;;;;;;;;;;;;;;;;;;;;;
2021/10/17 09:21:10;;;;;;;;;23.00;19.00;;;;;15.35;nan;101216.16;4811497;29;45529;-82
2021/10/17 09:23:49;;;;;;;;;18.33;17.00;;;;;15.27;nan;101185.78;4811711;29;45571;-81
2021/10/17 09:34:00;;;;;;;;;;;;;;;;;;;;;
2021/10/17 09:37:22;;;;;;;;;;;;;;;;;;;;;
2021/10/17 09:43:43;;;;;;;;;;;;;;;;;;;;;
2021/10/17 09:46:29;;;;;;;;;22.00;19.33;;;;;15.84;nan;101171.56;4702495;30;67930;-82
2021/10/17 09:48:55;;;;;;;;;20.67;17.67;;;;;15.86;nan;101184.06;4670187;30;45538;-81
2021/10/17 09:51:29;;;;;;;;;19.00;18.00;;;;;16.21;nan;101201.91;4670031;30;45855;-82
2021/10/17 09:54:06;;;;;;;;;17.00;17.00;;;;;16.17;nan;101171.47;4676845;30;45454;-81
2021/10/17 09:56:43;;;;;;;;;21.33;19.33;;;;;16.26;nan;101165.22;4703383;30;45498;-82
2021/10/17 09:59:14;;;;;;;;;17.33;16.33;;;;;16.49;nan;101193.78;4703676;30;45461;-81
2021/10/17 10:02:28;;;;;;;;;12.33;12.33;;;;;16.62;nan;101178.50;4704042;30;46908;-80
2021/10/17 10:05:29;;;;;;;;;;;;;;;;;;;;;
2021/10/17 10:08:22;;;;;;;;;;;;;;;;;;;;;
2021/10/17 10:11:20;;;;;;;;;17.33;14.67;;;;;17.07;nan;101224.94;4717612;30;64163;-82
2021/10/17 10:14:12;;;;;;;;;16.67;15.67;;;;;16.80;nan;101184.72;4714937;30;47624;-82
2021/10/17 10:16:56;;;;;;;;;19.33;17.67;;;;;17.22;nan;101197.97;4723313;30;45400;-82
2021/10/17 10:20:13;;;;;;;;;16.00;16.00;;;;;17.17;nan;101180.97;4731041;29;46019;-82
2021/10/17 10:22:57;;;;;;;;;19.67;15.00;;;;;17.18;nan;101186.31;4760402;29;45460;-82
2021/10/17 10:26:07;;;;;;;;;15.33;15.33;;;;;17.47;nan;101214.84;4776163;29;45478;-81
2021/10/17 10:32:00;;;;;;;;;17.67;13.67;;;;;17.39;nan;101209.50;4775015;29;45768;-82
2021/10/17 10:34:25;;;;;;;;;15.33;14.67;;;;;17.30;nan;101214.94;4778019;29;45468;-81
2021/10/17 10:37:05;;;;;;;;;;;;;;;;;;;;;
2021/10/17 10:40:18;;;;;;;;;;;;;;;;;;;;;
2021/10/17 10:43:09;;;;;;;;;;;;;;;;;;;;;
2021/10/17 10:46:15;;;;;;;;;;;;;;;;;;;;;
2021/10/17 10:49:14;;;;;;;;;;;;;;;;;;;;;
2021/10/17 10:52:09;;;;;;;;;17.33;14.00;;;;;17.86;nan;101202.00;4791626;29;71030;-81
2021/10/17 10:54:37;;;;;;;;;14.67;13.67;;;;;17.69;nan;101150.09;4794737;29;45522;-81
2021/10/17 11:00:56;;;;;;;;;;;;;;;;;;;;;
2021/10/17 11:04:04;;;;;;;;;12.33;12.00;;;;;18.48;nan;101196.91;4772118;29;72234;-83
2021/10/17 11:07:01;;;;;;;;;13.00;13.00;;;;;18.32;nan;101168.34;4773137;29;45451;-82
2021/10/17 11:09:57;;;;;;;;;12.33;12.33;;;;;18.59;nan;101197.66;4804041;29;45667;-82
2021/10/17 11:12:44;;;;;;;;;14.67;13.33;;;;;18.63;nan;101200.34;4812565;29;46435;-81
2021/10/17 11:15:31;;;;;;;;;;;;;;;;;;;;;
2021/10/17 11:28:39;;;;;;;;;;;;;;;;;;;;;
2021/10/17 11:31:59;;;;;;;;;20.00;14.33;;;;;18.52;nan;101171.72;4848753;29;68777;-82
2021/10/17 11:34:54;;;;;;;;;15.00;14.00;;;;;18.86;nan;101217.13;4851088;29;45487;-82
2021/10/17 11:37:27;;;;;;;;;8.00;8.00;;;;;18.66;nan;101192.19;4838745;29;46616;-82
2021/10/17 11:40:20;;;;;;;;;12.33;12.33;;;;;18.68;nan;101169.72;4847004;29;45460;-82
2021/10/17 11:43:20;;;;;;;;;;;;;;;;;;;;;
2021/10/17 11:46:28;;;;;;;;;;;;;;;;;;;;;
2021/10/17 11:50:21;;;;;;;;;;;;;;;;;;;;;
2021/10/17 11:52:54;;;;;;;;;;;;;;;;;;;;;
2021/10/17 12:06:23;;;;;;;;;12.67;12.67;;;;;18.96;nan;101172.97;4814285;29;45553;-81
2021/10/17 12:09:59;;;;;;;;;;;;;;;;;;;;;
2021/10/17 12:16:16;;;;;;;;;;;;;;;;;;;;;
2021/10/17 12:19:05;;;;;;;;;;;;;;;;;;;;;
2021/10/17 12:22:00;;;;;;;;;;;;;;;;;;;;;
2021/10/17 12:31:06;;;;;;;;;;;;;;;;;;;;;
2021/10/17 12:33:50;;;;;;;;;13.33;9.67;;;;;19.01;nan;101126.19;4761679;29;67284;-82
2021/10/17 12:36:30;;;;;;;;;7.00;6.33;;;;;19.38;nan;101170.56;4756423;29;45415;-82
2021/10/17 12:39:54;;;;;;;;;;;;;;;;;;;;;
2021/10/17 12:42:55;;;;;;;;;7.67;7.67;;;;;19.51;nan;101146.09;4757520;29;72909;-82
2021/10/17 12:45:31;;;;;;;;;5.00;5.00;;;;;19.67;nan;101171.91;4758721;29;45477;-82
2021/10/17 12:48:02;;;;;;;;;5.33;5.33;;;;;19.39;nan;101129.22;4765928;29;45841;-82
2021/10/17 12:54:12;;;;;;;;;7.00;7.00;;;;;19.78;nan;101148.38;4840913;29;45439;-82
2021/10/17 13:00:25;;;;;;;;;;;;;;;;;;;;;
2021/10/17 13:07:01;;;;;;;;;;;;;;;;;;;;;
2021/10/17 13:10:07;;;;;;;;;12.67;8.00;;;;;20.15;nan;101142.28;4740420;30;69602;-82
2021/10/17 13:12:45;;;;;;;;;7.33;7.33;;;;;20.18;nan;101136.84;4743913;29;45502;-83
2021/10/17 13:15:56;;;;;;;;;5.33;3.67;;;;;19.92;nan;101095.94;4743985;30;47698;-82
2021/10/17 13:18:59;;;;;;;;;5.33;4.67;;;;;20.11;nan;101128.88;4742944;29;45597;-82
2021/10/17 13:22:04;;;;;;;;;;;;;;;;;;;;;
2021/10/17 13:25:51;;;;;;;;;;;;;;;;;;;;;
2021/10/17 13:28:01;;;;;;;;;7.67;7.67;;;;;19.74;nan;101071.06;4717635;30;45995;-82
2021/10/17 13:33:51;;;;;;;;;5.67;5.67;;;;;19.78;nan;101086.28;4729060;30;45876;-81
2021/10/17 13:36:56;;;;;;;;;;;;;;;;;;;;;
2021/10/17 13:40:17;;;;;;;;;;;;;;;;;;;;;
2021/10/17 13:46:36;;;;;;;;;;;;;;;;;;;;;
2021/10/17 13:54:04;;;;;;;;;;;;;;;;;;;;;
2021/10/17 13:57:44;;;;;;;;;;;;;;;;;;;;;
2021/10/17 14:00:40;;;;;;;;;6.33;5.00;;;;;19.87;nan;101111.31;4753264;29;67170;-82
2021/10/17 14:03:26;;;;;;;;;6.67;5.00;;;;;19.63;nan;101100.00;4741630;29;45485;-82
2021/10/17 14:05:55;;;;;;;;;6.00;5.00;;;;;19.49;nan;101086.78;4739781;30;45989;-82
2021/10/17 14:08:36;;;;;;;;;6.00;6.00;;;;;19.21;nan;101080.06;4740098;30;45839;-82
2021/10/17 14:11:16;;;;;;;;;;;;;;;;;;;;;
2021/10/17 14:14:05;;;;;;;;;7.67;5.33;;;;;19.33;nan;101069.97;4740906;30;65053;-82
2021/10/17 14:16:34;;;;;;;;;7.33;7.33;;;;;19.33;nan;101102.34;4726655;30;46745;-82
2021/10/17 14:19:03;;;;;;;;;5.00;5.00;;;;;19.38;nan;101073.47;4724322;30;45407;-81
2021/10/17 14:22:00;;;;;;;;;8.00;7.00;;;;;19.45;nan;101070.66;4739340;30;45900;-81
2021/10/17 14:25:04;;;;;;;;;4.67;4.67;;;;;19.51;nan;101081.34;4741239;30;45623;-82
2021/10/17 14:32:00;;;;;;;;;7.00;6.00;;;;;19.83;nan;101123.09;4780436;29;44917;-81
2021/10/17 14:34:36;;;;;;;;;;;;;;;;;;;;;
2021/10/17 14:44:32;;;;;;;;;7.00;7.00;;;;;19.72;nan;101123.31;4760111;29;45526;-82
2021/10/17 14:50:55;;;;;;;;;8.00;6.67;;;;;19.41;nan;101077.94;4757074;29;45570;-82
2021/10/17 15:00:46;;;;;;;;;4.33;4.33;;;;;19.52;nan;101115.50;4759775;29;45389;-81
2021/10/17 15:04:02;;;;;;;;;;;;;;;;;;;;;
2021/10/17 15:06:46;;;;;;;;;;;;;;;;;;;;;
2021/10/17 15:09:49;;;;;;;;;5.67;5.67;;;;;19.49;nan;101102.97;4778954;29;72867;-81
2021/10/17 15:13:01;;;;;;;;;;;;;;;;;;;;;
2021/10/17 15:16:10;;;;;;;;;7.33;7.00;;;;;19.26;nan;101076.38;4793460;29;64616;-81
2021/10/17 15:25:40;;;;;;;;;;;;;;;;;;;;;
2021/10/17 15:32:02;;;;;;;;;;;;;;;;;;;;;
2021/10/17 15:34:57;;;;;;;;;;;;;;;;;;;;;
2021/10/17 15:37:41;;;;;;;;;;;;;;;;;;;;;
2021/10/17 15:40:16;;;;;;;;;7.33;7.00;;;;;19.13;nan;101089.19;4832319;29;65830;-81
2021/10/17 15:43:00;;;;;;;;;4.67;4.67;;;;;18.87;nan;101040.19;4840569;29;47757;-81
2021/10/17 15:45:36;;;;;;;;;5.67;5.67;;;;;18.83;nan;101068.97;4852541;29;45462;-81
2021/10/17 15:48:32;;;;;;;;;;;;;;;;;;;;;
2021/10/17 15:51:14;;;;;;;;;6.33;5.33;;;;;18.95;nan;101057.13;4832522;29;65053;-80
2021/10/17 15:53:45;;;;;;;;;4.33;4.33;;;;;18.90;nan;101070.63;4832227;29;47837;-82
2021/10/17 15:56:12;;;;;;;;;7.00;5.33;;;;;18.95;nan;101082.25;4834214;29;45551;-82
2021/10/17 15:58:49;;;;;;;;;;;;;;;;;;;;;
2021/10/17 16:01:38;;;;;;;;;;;;;;;;;;;;;
2021/10/17 16:04:22;;;;;;;;;;;;;;;;;;;;;
2021/10/17 16:07:23;;;;;;;;;4.33;4.33;;;;;18.95;nan;101093.03;4841370;29;72823;-82
2021/10/17 16:13:26;;;;;;;;;6.67;6.67;;;;;18.28;nan;101053.50;4781282;29;45500;-81
2021/10/17 16:16:02;;;;;;;;;6.67;6.00;;;;;18.57;nan;101094.44;4792606;29;45586;-82
2021/10/17 16:21:38;;;;;;;;;;;;;;;;;;;;;
2021/10/17 16:27:53;;;;;;;;;6.33;6.33;;;;;18.40;nan;101096.47;4783329;29;45571;-82
2021/10/17 16:30:19;;;;;;;;;9.00;7.33;;;;;18.16;nan;101093.16;4783372;29;45392;-82
2021/10/17 16:32:50;;;;;;;;;10.00;10.00;;;;;18.34;nan;101096.50;4766866;29;45943;-82
2021/10/17 16:35:16;;;;;;;;;9.00;9.00;;;;;17.96;nan;101046.75;4780051;29;45441;-82
2021/10/17 16:37:45;;;;;;;;;8.33;8.33;;;;;18.21;nan;101092.22;4764756;29;46952;-82
2021/10/17 16:40:33;;;;;;;;;7.00;7.00;;;;;18.11;nan;101051.94;4780044;29;45467;-82
2021/10/17 16:43:57;;;;;;;;;;;;;;;;;;;;;
2021/10/17 16:47:03;;;;;;;;;10.00;7.67;;;;;18.08;nan;101088.78;4780298;29;65098;-82
2021/10/17 16:50:02;;;;;;;;;6.67;5.00;;;;;17.85;nan;101097.09;4774960;29;45352;-81
2021/10/17 16:52:51;;;;;;;;;;;;;;;;;;;;;
2021/10/17 16:55:38;;;;;;;;;11.33;9.67;;;;;17.89;nan;101086.25;4760832;29;67972;-82
2021/10/17 16:58:10;;;;;;;;;9.00;8.00;;;;;17.97;nan;101113.09;4751922;29;45289;-82
2021/10/17 17:00:46;;;;;;;;;11.67;11.67;;;;;17.99;nan;101139.06;4778438;29;46605;-82
2021/10/17 17:03:12;;;;;;;;;12.67;9.00;;;;;17.54;nan;101100.03;4794924;29;45493;-81
2021/10/17 17:05:50;;;;;;;;;8.67;8.67;;;;;17.95;nan;101148.09;4795579;29;45830;-82
2021/10/17 17:08:22;;;;;;;;;12.00;12.00;;;;;17.61;nan;101136.72;4795689;29;44840;-83
2021/10/17 17:10:51;;;;;;;;;8.67;8.67;;;;;17.45;nan;101113.56;4795181;29;46874;-83
2021/10/17 17:13:20;;;;;;;;;14.00;12.67;;;;;17.35;nan;101101.97;4794642;29;45796;-82
2021/10/17 17:16:27;;;;;;;;;9.00;9.00;;;;;17.52;nan;101109.91;4795097;29;45481;-82
2021/10/17 17:19:27;;;;;;;;;11.67;10.67;;;;;17.42;nan;101124.34;4793896;29;45451;-82
2021/10/17 17:22:27;;;;;;;;;;;;;;;;;;;;;
2021/10/17 17:25:08;;;;;;;;;8.00;8.00;;;;;17.63;nan;101172.56;4794406;29;72052;-82
2021/10/17 17:28:29;;;;;;;;;10.00;10.00;;;;;17.69;nan;101179.69;4793003;29;45445;-81
2021/10/17 17:31:02;;;;;;;;;9.33;9.33;;;;;17.43;nan;101169.13;4815406;29;45475;-81
2021/10/17 17:33:56;;;;;;;;;10.00;9.33;;;;;17.59;nan;101197.69;4796406;29;47043;-81
2021/10/17 17:36:22;;;;;;;;;14.33;11.00;;;;;17.07;nan;101149.69;4794432;29;45508;-81
2021/10/17 17:38:49;;;;;;;;;12.00;10.00;;;;;17.13;nan;101145.16;4792983;29;45704;-81